createdAt,value
2022-09-01T00:00:15.051Z,14.90
2022-09-01T00:02:45.308Z,14.90
2022-09-01T00:05:13.603Z,15.00
2022-09-01T00:07:41.671Z,15.00
2022-09-01T00:10:10.743Z,15.10
2022-09-01T00:12:39.486Z,15.10
2022-09-01T00:15:10.310Z,15.10
2022-09-01T00:17:40.179Z,15.00
2022-09-01T00:20:09.548Z,15.00
2022-09-01T00:22:37.875Z,15.00
2022-09-01T00:25:08.002Z,14.90
2022-09-01T00:27:36.712Z,15.00
2022-09-01T00:30:06.293Z,15.00
2022-09-01T00:32:34.331Z,15.00
2022-09-01T00:35:03.787Z,15.00
2022-09-01T00:37:31.814Z,15.00
2022-09-01T00:39:59.803Z,15.00
2022-09-01T00:42:27.893Z,15.00
2022-09-01T00:44:55.880Z,15.00
2022-09-01T00:47:23.885Z,14.90
2022-09-01T00:49:53.170Z,14.90
2022-09-01T00:52:27.366Z,14.90
2022-09-01T00:54:59.178Z,14.90
2022-09-01T00:57:28.215Z,14.90
2022-09-01T01:00:00.219Z,14.90
2022-09-01T01:02:28.385Z,14.90
2022-09-01T01:05:00.738Z,14.90
2022-09-01T01:07:30.369Z,14.80
2022-09-01T01:09:58.616Z,14.80
2022-09-01T01:12:30.841Z,14.80
2022-09-01T01:14:58.918Z,14.70
2022-09-01T01:17:27.003Z,14.70
2022-09-01T01:20:14.618Z,14.60
2022-09-01T01:23:06.371Z,14.60
2022-09-01T01:25:40.189Z,14.60
2022-09-01T01:28:13.386Z,14.60
2022-09-01T01:30:43.518Z,14.60
2022-09-01T01:33:11.907Z,14.60
2022-09-01T01:35:41.964Z,14.50
2022-09-01T01:38:11.238Z,14.50
2022-09-01T01:40:41.552Z,14.40
2022-09-01T01:43:12.207Z,14.40
2022-09-01T01:45:40.303Z,14.30
2022-09-01T01:48:08.699Z,14.30
2022-09-01T01:50:37.898Z,14.30
2022-09-01T01:53:11.259Z,14.20
2022-09-01T01:55:41.895Z,14.20
2022-09-01T01:58:12.229Z,14.10
2022-09-01T02:00:42.898Z,14.00
2022-09-01T02:03:12.865Z,14.00
2022-09-01T02:05:41.465Z,14.00
2022-09-01T02:08:11.643Z,13.90
2022-09-01T02:10:44.745Z,13.90
2022-09-01T02:13:16.514Z,13.90
2022-09-01T02:15:47.697Z,13.90
2022-09-01T02:18:18.861Z,13.80
2022-09-01T02:20:49.449Z,13.80
2022-09-01T02:23:23.465Z,13.80
2022-09-01T02:28:45.818Z,13.70
2022-09-01T02:31:14.047Z,13.70
2022-09-01T02:33:45.637Z,13.70
2022-09-01T02:36:17.331Z,13.70
2022-09-01T02:38:46.709Z,13.60
2022-09-01T02:41:25.240Z,13.60
2022-09-01T02:43:54.233Z,13.60
2022-09-01T02:46:24.584Z,13.60
2022-09-01T02:48:53.602Z,13.60
2022-09-01T02:51:25.765Z,13.60
2022-09-01T02:53:55.121Z,13.60
2022-09-01T02:56:27.556Z,13.60
2022-09-01T02:58:56.511Z,13.60
2022-09-01T03:01:26.481Z,13.60
2022-09-01T03:03:56.626Z,13.50
2022-09-01T03:06:25.864Z,13.50
2022-09-01T03:08:55.715Z,13.40
2022-09-01T03:11:25.538Z,13.40
2022-09-01T03:13:54.206Z,13.40
2022-09-01T03:16:23.536Z,13.40
2022-09-01T03:18:52.577Z,13.40
2022-09-01T03:21:21.197Z,13.40
2022-09-01T03:23:50.313Z,13.40
2022-09-01T03:26:21.081Z,13.30
2022-09-01T03:28:51.408Z,13.40
2022-09-01T03:31:20.863Z,13.40
2022-09-01T03:33:49.300Z,13.40
2022-09-01T03:36:20.141Z,13.40
2022-09-01T03:38:49.954Z,13.50
2022-09-01T03:41:19.707Z,13.50
2022-09-01T03:43:48.452Z,13.50
2022-09-01T03:46:21.750Z,13.50
2022-09-01T03:48:51.347Z,13.50
2022-09-01T03:51:20.999Z,13.50
2022-09-01T03:53:49.300Z,13.40
2022-09-01T03:56:17.350Z,13.40
2022-09-01T03:58:47.262Z,13.30
2022-09-01T04:01:17.502Z,13.30
2022-09-01T04:03:49.134Z,13.30
2022-09-01T04:06:19.342Z,13.20
2022-09-01T04:08:47.961Z,13.20
2022-09-01T04:11:19.034Z,13.30
2022-09-01T04:13:48.263Z,13.30
2022-09-01T04:16:41.269Z,13.40
2022-09-01T04:19:20.113Z,13.40
2022-09-01T04:21:50.530Z,13.40
2022-09-01T04:24:19.924Z,13.40
2022-09-01T04:26:49.708Z,13.50
2022-09-01T04:29:19.794Z,13.50
2022-09-01T04:31:53.541Z,13.50
2022-09-01T04:34:22.480Z,13.50
2022-09-01T04:36:54.219Z,13.60
2022-09-01T04:39:22.826Z,13.60
2022-09-01T04:41:51.222Z,13.60
2022-09-01T04:44:20.199Z,13.60
2022-09-01T04:46:50.791Z,13.60
2022-09-01T04:49:22.490Z,13.60
2022-09-01T04:51:54.193Z,13.70
2022-09-01T04:54:23.799Z,13.80
2022-09-01T04:56:55.025Z,13.80
2022-09-01T04:59:27.329Z,13.80
2022-09-01T05:01:57.535Z,13.80
2022-09-01T05:04:28.214Z,13.80
2022-09-01T05:06:59.814Z,13.80
2022-09-01T05:09:29.925Z,13.80
2022-09-01T05:12:01.912Z,14.00
2022-09-01T05:14:30.759Z,14.40
2022-09-01T05:17:01.888Z,14.40
2022-09-01T05:19:30.857Z,14.50
2022-09-01T05:22:00.043Z,14.50
2022-09-01T05:24:32.106Z,14.60
2022-09-01T05:27:00.610Z,14.80
2022-09-01T05:29:29.742Z,14.90
2022-09-01T05:31:58.762Z,15.10
2022-09-01T05:34:29.730Z,15.10
2022-09-01T05:37:00.162Z,15.10
2022-09-01T05:39:28.667Z,15.00
2022-09-01T05:41:57.260Z,15.10
2022-09-01T05:44:25.391Z,15.10
2022-09-01T05:46:55.796Z,15.00
2022-09-01T05:49:24.710Z,15.00
2022-09-01T05:51:58.912Z,15.00
2022-09-01T05:54:29.191Z,15.10
2022-09-01T05:57:12.785Z,15.20
2022-09-01T05:59:42.098Z,15.30
2022-09-01T06:02:10.226Z,15.40
2022-09-01T06:04:44.217Z,15.40
2022-09-01T06:07:16.394Z,15.40
2022-09-01T06:09:48.187Z,15.40
2022-09-01T06:12:21.735Z,15.50
2022-09-01T06:14:51.391Z,15.50
2022-09-01T06:17:24.939Z,15.50
2022-09-01T06:19:54.886Z,15.60
2022-09-01T06:22:25.699Z,15.60
2022-09-01T06:24:59.575Z,15.70
2022-09-01T06:27:30.225Z,15.60
2022-09-01T06:29:58.659Z,15.60
2022-09-01T06:32:27.184Z,15.60
2022-09-01T06:34:58.219Z,15.60
2022-09-01T06:37:28.876Z,15.60
2022-09-01T06:39:57.605Z,15.70
2022-09-01T06:42:26.150Z,15.90
2022-09-01T06:44:54.564Z,15.90
2022-09-01T06:47:22.589Z,16.20
2022-09-01T06:49:52.672Z,17.00
2022-09-01T06:52:24.121Z,17.50
2022-09-01T06:54:55.049Z,17.90
2022-09-01T07:00:18.882Z,18.40
2022-09-01T07:02:48.652Z,18.50
2022-09-01T07:08:14.276Z,19.30
2022-09-01T07:13:35.678Z,20.10
2022-09-01T07:18:59.004Z,19.60
2022-09-01T07:22:06.646Z,19.50
2022-09-01T07:24:18.175Z,19.50
2022-09-01T07:26:51.077Z,19.70
2022-09-01T07:29:21.851Z,19.90
2022-09-01T07:32:41.178Z,20.20
2022-09-01T07:34:39.725Z,20.50
2022-09-01T07:37:17.320Z,20.70
2022-09-01T07:39:56.637Z,20.60
2022-09-01T07:45:32.408Z,21.00
2022-09-01T07:48:06.592Z,21.20
2022-09-01T07:50:41.361Z,21.40
2022-09-01T07:53:26.524Z,21.40
2022-09-01T07:55:57.226Z,21.40
2022-09-01T07:58:29.483Z,21.30
2022-09-01T08:01:00.168Z,21.50
2022-09-01T08:03:28.152Z,21.50
2022-09-01T08:06:00.834Z,21.30
2022-09-01T08:08:29.553Z,21.00
2022-09-01T08:11:05.299Z,21.00
2022-09-01T08:13:41.737Z,20.90
2022-09-01T08:16:18.578Z,20.90
2022-09-01T08:18:48.793Z,20.80
2022-09-01T08:21:22.009Z,20.70
2022-09-01T08:23:50.651Z,20.80
2022-09-01T08:26:20.695Z,20.70
2022-09-01T08:28:57.935Z,20.80
2022-09-01T08:31:30.755Z,20.80
2022-09-01T08:34:00.064Z,20.90
2022-09-01T08:36:28.167Z,20.90
2022-09-01T08:38:56.160Z,20.90
2022-09-01T08:41:35.420Z,20.80
2022-09-01T08:44:14.951Z,20.90
2022-09-01T08:46:44.023Z,20.90
2022-09-01T08:49:26.213Z,21.00
2022-09-01T08:52:01.750Z,21.00
2022-09-01T08:54:38.169Z,21.00
2022-09-01T08:57:09.825Z,21.30
2022-09-01T08:59:39.250Z,21.30
2022-09-01T09:02:24.438Z,21.30
2022-09-01T09:05:01.957Z,21.20
2022-09-01T09:07:49.219Z,21.10
2022-09-01T09:10:21.233Z,21.20
2022-09-01T09:13:02.285Z,21.30
2022-09-01T09:15:38.316Z,21.30
2022-09-01T09:18:20.128Z,21.50
2022-09-01T09:21:10.887Z,21.60
2022-09-01T09:23:43.186Z,21.60
2022-09-01T09:26:16.702Z,21.50
2022-09-01T09:28:50.809Z,21.50
2022-09-01T09:31:36.563Z,21.50
2022-09-01T09:34:05.198Z,21.40
2022-09-01T09:36:36.376Z,21.40
2022-09-01T09:39:13.778Z,21.40
2022-09-01T09:41:42.511Z,21.30
2022-09-01T09:44:24.848Z,21.30
2022-09-01T09:46:54.361Z,21.40
2022-09-01T09:49:36.659Z,21.50
2022-09-01T09:52:17.501Z,21.50
2022-09-01T09:55:02.999Z,21.40
2022-09-01T09:57:32.643Z,21.50
2022-09-01T10:00:04.777Z,21.50
2022-09-01T10:02:38.061Z,21.60
2022-09-01T10:05:26.064Z,21.50
2022-09-01T10:07:56.213Z,21.60
2022-09-01T10:10:32.659Z,21.50
2022-09-01T10:13:02.374Z,21.60
2022-09-01T10:15:33.961Z,21.70
2022-09-01T10:21:02.165Z,21.90
2022-09-01T10:23:35.251Z,21.90
2022-09-01T10:26:09.492Z,21.90
2022-09-01T10:28:50.011Z,21.70
2022-09-01T10:31:20.063Z,21.60
2022-09-01T10:33:50.925Z,21.70
2022-09-01T10:36:19.955Z,21.50
2022-09-01T10:38:53.832Z,21.70
2022-09-01T10:42:00.731Z,21.80
2022-09-01T10:44:34.075Z,22.00
2022-09-01T10:47:06.418Z,22.10
2022-09-01T10:50:09.976Z,22.20
2022-09-01T10:53:08.815Z,22.40
2022-09-01T10:55:44.043Z,22.60
2022-09-01T11:02:24.931Z,22.40
2022-09-01T11:05:16.841Z,22.60
2022-09-01T11:08:09.108Z,22.50
2022-09-01T11:10:52.842Z,22.30
2022-09-01T11:13:37.099Z,22.20
2022-09-01T11:16:47.793Z,22.20
2022-09-01T11:19:44.554Z,22.00
2022-09-01T11:22:22.146Z,22.10
2022-09-01T11:25:11.553Z,22.10
2022-09-01T11:28:02.975Z,22.10
2022-09-01T11:30:52.858Z,22.10
2022-09-01T11:33:43.419Z,22.10
2022-09-01T11:36:23.506Z,22.10
2022-09-01T11:38:57.543Z,22.40
2022-09-01T11:41:33.902Z,22.60
2022-09-01T11:44:11.815Z,22.90
2022-09-01T11:46:43.673Z,23.10
2022-09-01T11:49:29.160Z,23.30
2022-09-01T11:51:57.640Z,23.50
2022-09-01T11:54:26.290Z,23.70
2022-09-01T11:56:54.725Z,23.80
2022-09-01T11:59:34.993Z,23.90
2022-09-01T12:02:04.089Z,24.10
2022-09-01T12:04:36.776Z,24.30
2022-09-01T12:07:10.682Z,23.80
2022-09-01T12:09:42.925Z,23.70
2022-09-01T12:12:30.294Z,23.50
2022-09-01T12:15:07.095Z,23.40
2022-09-01T12:17:35.542Z,23.20
2022-09-01T12:20:28.900Z,23.10
2022-09-01T12:22:58.204Z,23.10
2022-09-01T12:25:28.482Z,22.90
2022-09-01T12:27:58.666Z,22.90
2022-09-01T12:30:28.840Z,23.00
2022-09-01T12:35:46.859Z,22.90
2022-09-01T12:38:25.232Z,22.90
2022-09-01T12:40:55.309Z,23.10
2022-09-01T12:43:37.097Z,23.20
2022-09-01T12:46:10.859Z,23.30
2022-09-01T12:48:41.403Z,23.50
2022-09-01T12:51:26.534Z,23.50
2022-09-01T12:54:04.498Z,23.50
2022-09-01T12:56:34.639Z,23.60
2022-09-01T12:59:16.031Z,23.70
2022-09-01T13:01:47.626Z,23.60
2022-09-01T13:04:28.470Z,23.60
2022-09-01T13:07:01.151Z,23.60
2022-09-01T13:09:29.622Z,23.70
2022-09-01T13:12:17.979Z,23.80
2022-09-01T13:14:46.251Z,23.80
2022-09-01T13:17:16.326Z,23.70
2022-09-01T13:19:44.379Z,23.70
2022-09-01T13:22:12.611Z,23.60
2022-09-01T13:24:40.979Z,23.60
2022-09-01T13:27:24.487Z,23.60
2022-09-01T13:29:52.909Z,23.60
2022-09-01T13:32:24.007Z,23.70
2022-09-01T13:34:54.726Z,23.80
2022-09-01T13:37:23.970Z,23.80
2022-09-01T13:39:52.374Z,23.70
2022-09-01T13:42:20.766Z,23.70
2022-09-01T13:44:52.616Z,23.50
2022-09-01T13:47:29.551Z,23.50
2022-09-01T13:50:07.607Z,23.60
2022-09-01T13:52:37.143Z,23.40
2022-09-01T13:55:06.054Z,23.30
2022-09-01T13:57:36.566Z,23.20
2022-09-01T14:00:07.871Z,23.30
2022-09-01T14:02:37.443Z,23.50
2022-09-01T14:05:06.138Z,23.50
2022-09-01T14:07:34.168Z,23.60
2022-09-01T14:10:02.755Z,23.70
2022-09-01T14:12:32.066Z,23.60
2022-09-01T14:15:17.815Z,23.50
2022-09-01T14:17:49.691Z,23.40
2022-09-01T14:20:19.566Z,23.30
2022-09-01T14:22:48.290Z,23.40
2022-09-01T14:25:17.679Z,23.50
2022-09-01T14:27:46.991Z,23.50
2022-09-01T14:30:18.107Z,23.60
2022-09-01T14:32:47.644Z,23.60
2022-09-01T14:35:17.765Z,23.70
2022-09-01T14:37:45.961Z,24.00
2022-09-01T14:40:17.274Z,23.90
2022-09-01T14:42:49.372Z,23.90
2022-09-01T14:45:19.630Z,24.00
2022-09-01T14:47:53.752Z,23.90
2022-09-01T14:50:23.691Z,23.70
2022-09-01T14:52:54.544Z,23.70
2022-09-01T14:55:23.749Z,23.60
2022-09-01T14:57:52.245Z,23.60
2022-09-01T15:00:21.214Z,23.60
2022-09-01T15:02:50.568Z,23.60
2022-09-01T15:05:18.618Z,23.60
2022-09-01T15:07:46.763Z,23.50
2022-09-01T15:10:24.959Z,23.50
2022-09-01T15:12:54.989Z,23.40
2022-09-01T15:15:23.623Z,23.30
2022-09-01T15:17:53.127Z,23.30
2022-09-01T15:20:38.452Z,23.20
2022-09-01T15:23:07.117Z,23.20
2022-09-01T15:25:35.466Z,23.10
2022-09-01T15:28:03.979Z,23.10
2022-09-01T15:30:31.984Z,23.20
2022-09-01T15:33:01.333Z,23.20
2022-09-01T15:35:32.596Z,23.30
2022-09-01T15:38:01.034Z,23.30
2022-09-01T15:40:29.639Z,23.40
2022-09-01T15:43:00.112Z,23.20
2022-09-01T15:45:29.968Z,23.10
2022-09-01T15:47:58.097Z,23.00
2022-09-01T15:50:28.181Z,23.00
2022-09-01T15:52:58.628Z,23.00
2022-09-01T15:55:29.091Z,23.00
2022-09-01T15:57:57.447Z,23.00
2022-09-01T16:00:27.819Z,23.00
2022-09-01T16:02:56.636Z,22.90
2022-09-01T16:05:25.135Z,22.90
2022-09-01T16:10:30.415Z,22.70
2022-09-01T16:13:01.523Z,22.70
2022-09-01T16:15:29.800Z,22.70
2022-09-01T16:18:15.127Z,22.60
2022-09-01T16:20:50.998Z,22.60
2022-09-01T16:23:22.676Z,22.60
2022-09-01T16:25:54.290Z,22.50
2022-09-01T16:28:27.408Z,22.50
2022-09-01T16:31:00.550Z,22.50
2022-09-01T16:33:28.782Z,22.40
2022-09-01T16:36:08.032Z,22.30
2022-09-01T16:38:45.405Z,22.30
2022-09-01T16:41:36.162Z,22.20
2022-09-01T16:44:18.891Z,22.10
2022-09-01T16:46:54.110Z,22.00
2022-09-01T16:49:28.085Z,22.00
2022-09-01T16:52:03.810Z,22.00
2022-09-01T16:54:47.338Z,21.80
2022-09-01T16:57:26.373Z,21.80
2022-09-01T16:59:56.951Z,21.80
2022-09-01T17:02:38.453Z,21.70
2022-09-01T17:05:17.943Z,21.70
2022-09-01T17:07:52.463Z,21.60
2022-09-01T17:10:34.473Z,21.50
2022-09-01T17:13:17.253Z,21.60
2022-09-01T17:15:51.859Z,21.50
2022-09-01T17:18:29.564Z,21.40
2022-09-01T17:21:03.183Z,21.40
2022-09-01T17:23:39.819Z,21.30
2022-09-01T17:26:18.283Z,21.30
2022-09-01T17:28:52.085Z,21.20
2022-09-01T17:31:34.994Z,21.20
2022-09-01T17:34:15.603Z,21.10
2022-09-01T17:36:52.131Z,21.10
2022-09-01T17:39:33.436Z,21.00
2022-09-01T17:42:11.118Z,20.90
2022-09-01T17:44:46.323Z,20.90
2022-09-01T17:47:21.354Z,20.90
2022-09-01T17:49:57.825Z,20.80
2022-09-01T17:52:39.973Z,20.70
2022-09-01T17:55:20.846Z,20.70
2022-09-01T17:57:54.626Z,20.60
2022-09-01T18:00:24.917Z,20.50
2022-09-01T18:03:22.642Z,20.50
2022-09-01T18:06:00.267Z,20.40
2022-09-01T18:08:34.799Z,20.30
2022-09-01T18:11:07.116Z,20.30
2022-09-01T18:13:53.779Z,20.20
2022-09-01T18:16:25.744Z,20.10
2022-09-01T18:18:54.960Z,20.10
2022-09-01T18:21:26.165Z,20.00
2022-09-01T18:24:02.667Z,19.90
2022-09-01T18:26:36.265Z,19.90
2022-09-01T18:29:07.209Z,19.80
2022-09-01T18:32:03.142Z,19.70
2022-09-01T18:34:48.187Z,19.60
2022-09-01T18:37:25.906Z,19.60
2022-09-01T18:40:03.943Z,19.50
2022-09-01T18:42:38.564Z,19.50
2022-09-01T18:45:16.028Z,19.40
2022-09-01T18:47:57.680Z,19.40
2022-09-01T18:50:33.527Z,19.30
2022-09-01T18:53:17.727Z,19.30
2022-09-01T18:55:51.831Z,19.30
2022-09-01T18:58:33.099Z,19.20
2022-09-01T19:01:07.167Z,19.20
2022-09-01T19:03:41.425Z,19.10
2022-09-01T19:06:30.252Z,19.10
2022-09-01T19:09:20.164Z,19.00
2022-09-01T19:12:03.811Z,19.00
2022-09-01T19:14:41.950Z,19.00
2022-09-01T19:17:25.971Z,18.90
2022-09-01T19:19:58.995Z,18.90
2022-09-01T19:22:37.365Z,18.90
2022-09-01T19:25:26.757Z,18.80
2022-09-01T19:27:59.212Z,18.80
2022-09-01T19:30:27.359Z,18.80
2022-09-01T19:32:59.167Z,18.70
2022-09-01T19:35:29.313Z,18.70
2022-09-01T19:37:57.303Z,18.60
2022-09-01T19:40:31.609Z,18.60
2022-09-01T19:43:06.213Z,18.50
2022-09-01T19:45:45.055Z,18.50
2022-09-01T19:48:19.650Z,18.50
2022-09-01T19:50:54.281Z,18.40
2022-09-01T19:53:32.178Z,18.40
2022-09-01T19:56:06.072Z,18.40
2022-09-01T19:58:56.524Z,18.30
2022-09-01T20:01:35.554Z,18.30
2022-09-01T20:04:16.936Z,18.30
2022-09-01T20:06:49.264Z,18.30
2022-09-01T20:09:23.802Z,18.30
2022-09-01T20:11:56.385Z,18.20
2022-09-01T20:14:39.723Z,18.20
2022-09-01T20:17:12.971Z,18.20
2022-09-01T20:19:47.500Z,18.20
2022-09-01T20:22:31.254Z,18.20
2022-09-01T20:25:08.463Z,18.20
2022-09-01T20:27:46.950Z,18.10
2022-09-01T20:30:19.495Z,18.10
2022-09-01T20:32:55.185Z,18.10
2022-09-01T20:35:30.181Z,18.10
2022-09-01T20:38:03.882Z,18.10
2022-09-01T20:40:36.869Z,18.00
2022-09-01T20:43:18.443Z,18.00
2022-09-01T20:45:47.049Z,18.00
2022-09-01T20:48:17.406Z,18.00
2022-09-01T20:50:52.611Z,17.90
2022-09-01T20:53:34.569Z,18.00
2022-09-01T20:56:09.145Z,17.90
2022-09-01T20:58:42.891Z,17.90
2022-09-01T21:01:19.217Z,17.90
2022-09-01T21:04:05.864Z,17.90
2022-09-01T21:06:48.520Z,17.90
2022-09-01T21:09:25.667Z,17.90
2022-09-01T21:12:01.130Z,17.90
2022-09-01T21:14:41.904Z,17.80
2022-09-01T21:17:17.492Z,17.80
2022-09-01T21:19:53.159Z,17.80
2022-09-01T21:22:22.686Z,17.80
2022-09-01T21:24:51.177Z,17.80
2022-09-01T21:27:22.648Z,17.80
2022-09-01T21:30:00.680Z,17.80
2022-09-01T21:32:30.647Z,17.80
2022-09-01T21:34:58.996Z,17.80
2022-09-01T21:37:29.600Z,17.80
2022-09-01T21:39:58.186Z,17.80
2022-09-01T21:42:30.473Z,17.80
2022-09-01T21:44:59.651Z,17.70
2022-09-01T21:47:28.426Z,17.60
2022-09-01T21:49:56.818Z,17.60
2022-09-01T21:52:24.912Z,17.60
2022-09-01T21:54:54.425Z,17.60
2022-09-01T21:57:23.118Z,17.60
2022-09-01T21:59:51.425Z,17.60
2022-09-01T22:02:20.510Z,17.50
2022-09-01T22:04:48.860Z,17.50
2022-09-01T22:07:18.714Z,17.40
2022-09-01T22:09:47.122Z,17.40
2022-09-01T22:12:16.543Z,17.40
2022-09-01T22:14:44.527Z,17.40
2022-09-01T22:17:12.623Z,17.30
2022-09-01T22:19:40.605Z,17.30
2022-09-01T22:22:08.957Z,17.30
2022-09-01T22:24:37.056Z,17.30
2022-09-01T22:27:05.349Z,17.20
2022-09-01T22:29:34.729Z,17.20
2022-09-01T22:32:02.899Z,17.20
2022-09-01T22:34:33.094Z,17.20
2022-09-01T22:37:01.264Z,17.20
2022-09-01T22:39:29.323Z,17.10
2022-09-01T22:41:57.465Z,17.10
2022-09-01T22:44:25.913Z,17.10
2022-09-01T22:46:55.275Z,17.00
2022-09-01T22:49:23.324Z,17.00
2022-09-01T22:51:51.448Z,17.00
2022-09-01T22:54:19.450Z,16.90
2022-09-01T22:56:49.853Z,16.90
2022-09-01T22:59:17.859Z,16.90
2022-09-01T23:01:47.622Z,16.90
2022-09-01T23:04:18.103Z,16.90
2022-09-01T23:06:49.492Z,16.90
2022-09-01T23:09:18.664Z,16.90
2022-09-01T23:11:47.171Z,16.90
2022-09-01T23:14:15.346Z,16.90
2022-09-01T23:16:43.731Z,16.90
2022-09-01T23:19:12.014Z,16.90
2022-09-01T23:21:41.423Z,16.90
2022-09-01T23:24:09.749Z,16.90
2022-09-01T23:26:37.850Z,17.00
2022-09-01T23:29:06.629Z,17.00
2022-09-01T23:31:36.980Z,17.00
2022-09-01T23:34:07.181Z,17.00
2022-09-01T23:36:35.207Z,17.00
2022-09-01T23:39:05.218Z,17.00
2022-09-01T23:41:34.911Z,17.00
2022-09-01T23:44:06.041Z,17.00
2022-09-01T23:46:36.987Z,17.00
2022-09-01T23:49:05.840Z,16.90
2022-09-01T23:51:34.344Z,17.00
2022-09-01T23:54:02.550Z,17.00
2022-09-01T23:56:32.311Z,17.00
2022-09-01T23:59:01.108Z,17.00
